createdAt,value
2023-05-17T00:00:03.991Z,481.00
2023-05-17T00:01:03.963Z,480.00
2023-05-17T00:02:03.977Z,479.00
2023-05-17T00:03:04.023Z,480.00
2023-05-17T00:04:03.992Z,480.00
2023-05-17T00:05:03.946Z,479.00
2023-05-17T00:06:04.068Z,478.00
2023-05-17T00:07:03.957Z,479.00
2023-05-17T00:08:03.955Z,478.00
2023-05-17T00:09:03.964Z,479.00
2023-05-17T00:10:03.930Z,480.00
2023-05-17T00:11:03.927Z,480.00
2023-05-17T00:12:03.912Z,478.00
2023-05-17T00:13:04.444Z,477.00
2023-05-17T00:14:03.896Z,479.00
2023-05-17T00:15:03.889Z,481.00
2023-05-17T00:16:03.873Z,481.00
2023-05-17T00:17:03.916Z,483.00
2023-05-17T00:18:04.006Z,482.00
2023-05-17T00:19:04.019Z,484.00
2023-05-17T00:20:03.971Z,483.00
2023-05-17T00:21:03.980Z,486.00
2023-05-17T00:22:04.093Z,488.00
2023-05-17T00:23:04.055Z,488.00
2023-05-17T00:24:04.086Z,488.00
2023-05-17T00:25:04.177Z,488.00
2023-05-17T00:26:04.167Z,485.00
2023-05-17T00:27:04.221Z,482.00
2023-05-17T00:28:04.239Z,483.00
2023-05-17T00:29:04.302Z,485.00
2023-05-17T00:30:04.278Z,485.00
2023-05-17T00:31:04.355Z,487.00
2023-05-17T00:32:04.364Z,486.00
2023-05-17T00:33:04.564Z,485.00
2023-05-17T00:34:04.484Z,483.00
2023-05-17T00:35:04.569Z,481.00
2023-05-17T00:36:04.596Z,479.00
2023-05-17T00:37:04.572Z,480.00
2023-05-17T00:38:04.686Z,482.00
2023-05-17T00:39:04.651Z,482.00
2023-05-17T00:40:04.702Z,482.00
2023-05-17T00:41:04.733Z,482.00
2023-05-17T00:42:04.771Z,482.00
2023-05-17T00:43:04.978Z,480.00
2023-05-17T00:44:04.839Z,478.00
2023-05-17T00:45:04.895Z,479.00
2023-05-17T00:46:04.926Z,482.00
2023-05-17T00:47:05.004Z,481.00
2023-05-17T00:48:05.592Z,481.00
2023-05-17T00:49:05.033Z,479.00
2023-05-17T00:50:05.114Z,477.00
2023-05-17T00:51:05.093Z,478.00
2023-05-17T00:52:05.148Z,480.00
2023-05-17T00:53:05.458Z,483.00
2023-05-17T00:54:05.368Z,484.00
2023-05-17T00:55:05.344Z,481.00
2023-05-17T00:56:05.300Z,480.00
2023-05-17T00:57:05.380Z,480.00
2023-05-17T00:58:05.425Z,482.00
2023-05-17T00:59:05.420Z,481.00
2023-05-17T01:00:05.442Z,480.00
2023-05-17T01:01:05.546Z,475.00
2023-05-17T01:02:05.515Z,476.00
2023-05-17T01:03:05.634Z,474.00
2023-05-17T01:04:05.731Z,474.00
2023-05-17T01:05:05.761Z,474.00
2023-05-17T01:06:05.710Z,472.00
2023-05-17T01:07:05.760Z,469.00
2023-05-17T01:08:05.791Z,467.00
2023-05-17T01:09:05.881Z,468.00
2023-05-17T01:10:05.971Z,471.00
2023-05-17T01:11:05.943Z,471.00
2023-05-17T01:12:05.982Z,472.00
2023-05-17T01:13:06.036Z,474.00
2023-05-17T01:14:06.084Z,473.00
2023-05-17T01:15:06.103Z,474.00
2023-05-17T01:16:06.156Z,475.00
2023-05-17T01:17:06.218Z,475.00
2023-05-17T01:18:06.371Z,474.00
2023-05-17T01:19:06.402Z,472.00
2023-05-17T01:20:06.535Z,472.00
2023-05-17T01:21:06.393Z,473.00
2023-05-17T01:22:06.428Z,473.00
2023-05-17T01:23:06.521Z,472.00
2023-05-17T01:24:06.568Z,471.00
2023-05-17T01:25:06.621Z,471.00
2023-05-17T01:26:06.799Z,471.00
2023-05-17T01:27:06.701Z,473.00
2023-05-17T01:28:06.762Z,472.00
2023-05-17T01:29:06.795Z,475.00
2023-05-17T01:30:06.866Z,474.00
2023-05-17T01:31:06.891Z,475.00
2023-05-17T01:32:06.945Z,476.00
2023-05-17T01:33:07.012Z,479.00
2023-05-17T01:34:07.017Z,478.00
2023-05-17T01:35:07.047Z,478.00
2023-05-17T01:36:07.117Z,480.00
2023-05-17T01:37:07.161Z,479.00
2023-05-17T01:38:07.234Z,479.00
2023-05-17T01:39:07.281Z,482.00
2023-05-17T01:40:07.307Z,484.00
2023-05-17T01:41:07.355Z,483.00
2023-05-17T01:42:07.506Z,483.00
2023-05-17T01:43:07.438Z,482.00
2023-05-17T01:44:07.509Z,483.00
2023-05-17T01:45:07.559Z,481.00
2023-05-17T01:46:07.616Z,479.00
2023-05-17T01:47:07.677Z,478.00
2023-05-17T01:48:07.779Z,478.00
2023-05-17T01:49:07.780Z,478.00
2023-05-17T01:50:07.834Z,476.00
2023-05-17T01:51:07.900Z,476.00
2023-05-17T01:52:07.903Z,476.00
2023-05-17T01:53:07.987Z,478.00
2023-05-17T01:54:08.023Z,476.00
2023-05-17T01:55:08.082Z,476.00
2023-05-17T01:56:08.123Z,477.00
2023-05-17T01:57:08.182Z,476.00
2023-05-17T01:58:08.300Z,474.00
2023-05-17T01:59:08.260Z,472.00
2023-05-17T02:00:08.301Z,472.00
2023-05-17T02:01:08.422Z,472.00
2023-05-17T02:02:08.424Z,470.00
2023-05-17T02:03:08.462Z,470.00
2023-05-17T02:04:08.586Z,471.00
2023-05-17T02:05:08.574Z,473.00
2023-05-17T02:06:08.599Z,475.00
2023-05-17T02:07:08.659Z,477.00
2023-05-17T02:08:08.676Z,474.00
2023-05-17T02:09:08.739Z,472.00
2023-05-17T02:10:08.809Z,474.00
2023-05-17T02:11:08.799Z,473.00
2023-05-17T02:12:08.835Z,473.00
2023-05-17T02:13:08.848Z,472.00
2023-05-17T02:14:08.951Z,471.00
2023-05-17T02:15:08.911Z,473.00
2023-05-17T02:16:08.987Z,473.00
2023-05-17T02:17:09.029Z,473.00
2023-05-17T02:18:09.195Z,474.00
2023-05-17T02:19:09.182Z,473.00
2023-05-17T02:20:09.125Z,472.00
2023-05-17T02:21:09.145Z,472.00
2023-05-17T02:22:09.176Z,471.00
2023-05-17T02:23:09.221Z,472.00
2023-05-17T02:24:09.255Z,474.00
2023-05-17T02:25:09.290Z,473.00
2023-05-17T02:26:09.339Z,471.00
2023-05-17T02:27:09.365Z,470.00
2023-05-17T02:28:09.417Z,471.00
2023-05-17T02:29:09.465Z,472.00
2023-05-17T02:30:09.517Z,473.00
2023-05-17T02:31:09.523Z,471.00
2023-05-17T02:32:09.525Z,473.00
2023-05-17T02:33:09.630Z,474.00
2023-05-17T02:34:09.609Z,474.00
2023-05-17T02:35:09.594Z,472.00
2023-05-17T02:36:09.621Z,471.00
2023-05-17T02:37:09.689Z,471.00
2023-05-17T02:38:09.713Z,470.00
2023-05-17T02:39:09.737Z,471.00
2023-05-17T02:40:09.841Z,470.00
2023-05-17T02:41:09.899Z,471.00
2023-05-17T02:42:09.823Z,472.00
2023-05-17T02:43:09.894Z,472.00
2023-05-17T02:44:09.924Z,473.00
2023-05-17T02:45:09.949Z,473.00
2023-05-17T02:46:10.225Z,472.00
2023-05-17T02:47:10.068Z,471.00
2023-05-17T02:48:10.600Z,473.00
2023-05-17T02:49:10.026Z,474.00
2023-05-17T02:50:10.009Z,472.00
2023-05-17T02:51:10.027Z,471.00
2023-05-17T02:52:10.020Z,468.00
2023-05-17T02:53:10.093Z,469.00
2023-05-17T02:54:10.057Z,469.00
2023-05-17T02:55:10.133Z,469.00
2023-05-17T02:56:10.121Z,470.00
2023-05-17T02:57:10.132Z,470.00
2023-05-17T02:58:10.148Z,468.00
2023-05-17T02:59:10.135Z,469.00
2023-05-17T03:00:10.169Z,468.00
2023-05-17T03:01:10.181Z,467.00
2023-05-17T03:02:10.301Z,470.00
2023-05-17T03:03:10.335Z,470.00
2023-05-17T03:04:10.364Z,472.00
2023-05-17T03:05:10.226Z,472.00
2023-05-17T03:06:10.246Z,471.00
2023-05-17T03:07:10.329Z,471.00
2023-05-17T03:08:10.276Z,470.00
2023-05-17T03:09:10.264Z,472.00
2023-05-17T03:10:10.282Z,471.00
2023-05-17T03:11:10.308Z,471.00
2023-05-17T03:12:10.328Z,472.00
2023-05-17T03:13:10.336Z,474.00
2023-05-17T03:14:10.341Z,473.00
2023-05-17T03:15:10.363Z,472.00
2023-05-17T03:16:10.400Z,475.00
2023-05-17T03:17:10.421Z,474.00
2023-05-17T03:18:10.500Z,473.00
2023-05-17T03:19:10.552Z,472.00
2023-05-17T03:20:10.454Z,474.00
2023-05-17T03:21:10.506Z,474.00
2023-05-17T03:22:10.473Z,472.00
2023-05-17T03:23:10.480Z,473.00
2023-05-17T03:24:10.528Z,473.00
2023-05-17T03:25:10.534Z,477.00
2023-05-17T03:26:10.529Z,477.00
2023-05-17T03:27:10.563Z,480.00
2023-05-17T03:28:11.002Z,478.00
2023-05-17T03:29:10.613Z,480.00
2023-05-17T03:30:10.584Z,481.00
2023-05-17T03:31:10.703Z,479.00
2023-05-17T03:32:10.648Z,478.00
2023-05-17T03:33:11.026Z,478.00
2023-05-17T03:34:10.772Z,478.00
2023-05-17T03:35:10.707Z,478.00
2023-05-17T03:36:10.720Z,477.00
2023-05-17T03:37:10.709Z,478.00
2023-05-17T03:38:11.015Z,478.00
2023-05-17T03:39:10.770Z,478.00
2023-05-17T03:40:10.847Z,476.00
2023-05-17T03:41:10.831Z,474.00
2023-05-17T03:42:10.849Z,473.00
2023-05-17T03:43:10.873Z,473.00
2023-05-17T03:44:10.927Z,474.00
2023-05-17T03:45:10.952Z,475.00
2023-05-17T03:46:10.935Z,474.00
2023-05-17T03:47:10.988Z,472.00
2023-05-17T03:48:11.029Z,473.00
2023-05-17T03:49:11.199Z,473.00
2023-05-17T03:50:11.126Z,471.00
2023-05-17T03:51:11.061Z,470.00
2023-05-17T03:52:11.083Z,469.00
2023-05-17T03:53:11.546Z,465.00
2023-05-17T03:54:11.170Z,464.00
2023-05-17T03:55:11.145Z,465.00
2023-05-17T03:56:11.200Z,466.00
2023-05-17T03:57:11.205Z,467.00
2023-05-17T03:58:11.260Z,469.00
2023-05-17T03:59:11.233Z,471.00
2023-05-17T04:00:11.256Z,473.00
2023-05-17T04:01:11.287Z,473.00
2023-05-17T04:02:11.302Z,473.00
2023-05-17T04:03:11.333Z,472.00
2023-05-17T04:04:11.405Z,474.00
2023-05-17T04:05:11.402Z,476.00
2023-05-17T04:06:11.486Z,476.00
2023-05-17T04:07:11.447Z,476.00
2023-05-17T04:08:11.448Z,475.00
2023-05-17T04:09:11.438Z,472.00
2023-05-17T04:10:11.498Z,471.00
2023-05-17T04:11:11.520Z,471.00
2023-05-17T04:12:11.505Z,471.00
2023-05-17T04:13:11.557Z,471.00
2023-05-17T04:14:11.563Z,472.00
2023-05-17T04:15:11.597Z,471.00
2023-05-17T04:16:11.642Z,471.00
2023-05-17T04:17:11.648Z,471.00
2023-05-17T04:18:11.781Z,473.00
2023-05-17T04:19:11.748Z,475.00
2023-05-17T04:20:11.743Z,474.00
2023-05-17T04:21:11.721Z,475.00
2023-05-17T04:22:11.819Z,476.00
2023-05-17T04:23:11.747Z,478.00
2023-05-17T04:24:11.793Z,478.00
2023-05-17T04:25:11.868Z,476.00
2023-05-17T04:26:11.870Z,475.00
2023-05-17T04:27:11.877Z,479.00
2023-05-17T04:28:11.931Z,479.00
2023-05-17T04:29:11.938Z,479.00
2023-05-17T04:30:11.952Z,478.00
2023-05-17T04:31:11.968Z,477.00
2023-05-17T04:32:11.984Z,477.00
2023-05-17T04:33:14.104Z,478.00
2023-05-17T04:34:12.155Z,477.00
2023-05-17T04:35:12.061Z,477.00
2023-05-17T04:36:12.086Z,478.00
2023-05-17T04:37:12.075Z,477.00
2023-05-17T04:38:12.206Z,479.00
2023-05-17T04:39:12.135Z,477.00
2023-05-17T04:40:12.131Z,475.00
2023-05-17T04:41:12.175Z,476.00
2023-05-17T04:42:12.180Z,477.00
2023-05-17T04:43:12.237Z,477.00
2023-05-17T04:44:12.250Z,476.00
2023-05-17T04:45:13.459Z,477.00
2023-05-17T04:46:12.271Z,477.00
2023-05-17T04:47:12.237Z,478.00
2023-05-17T04:48:12.323Z,478.00
2023-05-17T04:49:12.237Z,479.00
2023-05-17T04:50:12.236Z,478.00
2023-05-17T04:51:12.246Z,479.00
2023-05-17T04:52:12.210Z,480.00
2023-05-17T04:53:12.224Z,481.00
2023-05-17T04:54:12.329Z,482.00
2023-05-17T04:55:12.226Z,484.00
2023-05-17T04:56:12.187Z,484.00
2023-05-17T04:57:12.164Z,483.00
2023-05-17T04:58:12.194Z,483.00
2023-05-17T04:59:12.154Z,482.00
2023-05-17T05:00:12.143Z,482.00
2023-05-17T05:01:12.157Z,482.00
2023-05-17T05:02:12.115Z,481.00
2023-05-17T05:03:12.244Z,481.00
2023-05-17T05:04:12.240Z,483.00
2023-05-17T05:05:12.196Z,486.00
2023-05-17T05:06:12.100Z,490.00
2023-05-17T05:07:12.091Z,492.00
2023-05-17T05:08:12.110Z,492.00
2023-05-17T05:09:12.054Z,492.00
2023-05-17T05:10:12.135Z,492.00
2023-05-17T05:11:12.174Z,492.00
2023-05-17T05:12:12.087Z,493.00
2023-05-17T05:13:12.061Z,495.00
2023-05-17T05:14:12.032Z,495.00
2023-05-17T05:15:12.032Z,496.00
2023-05-17T05:16:12.048Z,494.00
2023-05-17T05:17:12.025Z,493.00
2023-05-17T05:18:12.105Z,492.00
2023-05-17T05:19:12.265Z,492.00
2023-05-17T05:20:12.049Z,492.00
2023-05-17T05:21:11.968Z,491.00
2023-05-17T05:22:11.987Z,491.00
2023-05-17T05:23:12.021Z,490.00
2023-05-17T05:24:11.959Z,489.00
2023-05-17T05:25:11.965Z,489.00
2023-05-17T05:26:12.160Z,490.00
2023-05-17T05:27:11.933Z,490.00
2023-05-17T05:28:11.928Z,488.00
2023-05-17T05:29:11.944Z,486.00
2023-05-17T05:30:11.944Z,485.00
2023-05-17T05:31:11.919Z,484.00
2023-05-17T05:32:11.900Z,484.00
2023-05-17T05:33:11.982Z,485.00
2023-05-17T05:34:11.987Z,487.00
2023-05-17T05:35:11.889Z,488.00
2023-05-17T05:36:11.884Z,490.00
2023-05-17T05:37:11.867Z,490.00
2023-05-17T05:38:11.868Z,488.00
2023-05-17T05:39:11.858Z,490.00
2023-05-17T05:40:11.856Z,492.00
2023-05-17T05:41:11.842Z,492.00
2023-05-17T05:42:11.888Z,491.00
2023-05-17T05:43:11.840Z,489.00
2023-05-17T05:44:11.823Z,487.00
2023-05-17T05:45:11.794Z,488.00
2023-05-17T05:46:11.822Z,487.00
2023-05-17T05:47:11.798Z,490.00
2023-05-17T05:48:11.899Z,499.00
2023-05-17T05:49:11.752Z,509.00
2023-05-17T05:50:11.785Z,518.00
2023-05-17T05:51:11.796Z,526.00
2023-05-17T05:52:11.913Z,526.00
2023-05-17T05:53:18.834Z,528.00
2023-05-17T05:54:12.920Z,530.00
2023-05-17T05:55:11.895Z,535.00
2023-05-17T05:56:11.873Z,540.00
2023-05-17T05:57:11.900Z,541.00
2023-05-17T05:58:11.907Z,539.00
2023-05-17T05:59:11.895Z,536.00
2023-05-17T06:00:11.869Z,535.00
2023-05-17T06:01:11.924Z,531.00
2023-05-17T06:02:11.851Z,530.00
2023-05-17T06:03:11.861Z,526.00
2023-05-17T06:04:11.889Z,526.00
2023-05-17T06:05:12.098Z,522.00
2023-05-17T06:06:12.095Z,521.00
2023-05-17T06:07:12.011Z,521.00
2023-05-17T06:08:12.067Z,522.00
2023-05-17T06:09:12.107Z,520.00
2023-05-17T06:10:12.160Z,519.00
2023-05-17T06:11:12.144Z,519.00
2023-05-17T06:12:12.207Z,516.00
2023-05-17T06:13:12.269Z,515.00
2023-05-17T06:14:12.358Z,515.00
2023-05-17T06:15:12.308Z,513.00
2023-05-17T06:16:12.398Z,513.00
2023-05-17T06:17:12.414Z,512.00
2023-05-17T06:18:12.573Z,512.00
2023-05-17T06:19:12.581Z,514.00
2023-05-17T06:20:12.562Z,514.00
2023-05-17T06:21:12.599Z,512.00
2023-05-17T06:22:12.621Z,511.00
2023-05-17T06:23:12.685Z,508.00
2023-05-17T06:24:12.678Z,509.00
2023-05-17T06:25:12.744Z,509.00
2023-05-17T06:26:12.805Z,508.00
2023-05-17T06:27:12.808Z,510.00
2023-05-17T06:28:12.857Z,512.00
2023-05-17T06:29:12.919Z,510.00
2023-05-17T06:30:13.028Z,511.00
2023-05-17T06:31:13.011Z,512.00
2023-05-17T06:32:13.067Z,513.00
2023-05-17T06:33:13.137Z,513.00
2023-05-17T06:34:13.131Z,511.00
2023-05-17T06:35:13.171Z,511.00
2023-05-17T06:36:13.170Z,512.00
2023-05-17T06:37:13.233Z,513.00
2023-05-17T06:38:13.239Z,509.00
2023-05-17T06:39:13.299Z,509.00
2023-05-17T06:41:13.343Z,510.00
2023-05-17T06:42:13.388Z,510.00
2023-05-17T06:43:13.422Z,512.00
2023-05-17T06:44:13.480Z,515.00
2023-05-17T06:45:13.494Z,519.00
2023-05-17T06:46:13.626Z,520.00
2023-05-17T06:47:13.569Z,521.00
2023-05-17T06:48:13.731Z,524.00
2023-05-17T06:49:13.674Z,524.00
2023-05-17T06:50:13.649Z,526.00
2023-05-17T06:51:13.683Z,527.00
2023-05-17T06:52:13.736Z,528.00
2023-05-17T06:53:13.768Z,527.00
2023-05-17T06:54:13.823Z,531.00
2023-05-17T06:55:13.849Z,562.00
2023-05-17T06:56:13.898Z,564.00
2023-05-17T06:57:13.926Z,568.00
2023-05-17T06:58:13.905Z,575.00
2023-05-17T06:59:13.955Z,577.00
2023-05-17T07:00:14.000Z,658.00
2023-05-17T07:01:14.026Z,652.00
2023-05-17T07:02:14.075Z,660.00
2023-05-17T07:03:14.133Z,768.00
2023-05-17T07:04:14.322Z,826.00
2023-05-17T07:05:14.150Z,921.00
2023-05-17T07:06:14.155Z,953.00
2023-05-17T07:07:14.208Z,984.00
2023-05-17T07:08:14.555Z,1001.00
2023-05-17T07:09:14.239Z,1026.00
2023-05-17T07:10:14.284Z,1070.00
2023-05-17T07:11:14.277Z,1088.00
2023-05-17T07:12:14.269Z,1106.00
2023-05-17T07:13:14.549Z,1133.00
2023-05-17T07:14:14.349Z,1151.00
2023-05-17T07:15:14.538Z,1169.00
2023-05-17T07:16:14.467Z,1188.00
2023-05-17T07:17:14.522Z,1209.00
2023-05-17T07:18:15.238Z,1229.00
2023-05-17T07:19:14.703Z,1244.00
2023-05-17T07:20:14.752Z,1262.00
2023-05-17T07:21:14.711Z,1282.00
2023-05-17T07:22:14.759Z,1298.00
2023-05-17T07:23:15.063Z,1161.00
2023-05-17T07:24:14.883Z,1231.00
2023-05-17T07:25:14.893Z,1246.00
2023-05-17T07:26:14.900Z,1099.00
2023-05-17T07:27:15.024Z,1168.00
2023-05-17T07:28:15.063Z,1167.00
2023-05-17T07:29:15.026Z,1165.00
2023-05-17T07:30:15.075Z,1164.00
2023-05-17T07:31:15.037Z,1174.00
2023-05-17T07:32:15.116Z,1185.00
2023-05-17T07:33:15.238Z,1194.00
2023-05-17T07:34:15.284Z,1203.00
2023-05-17T07:35:15.245Z,1212.00
2023-05-17T07:36:15.284Z,1213.00
2023-05-17T07:37:15.292Z,1216.00
2023-05-17T07:38:15.298Z,1214.00
2023-05-17T07:39:15.375Z,1213.00
2023-05-17T07:40:15.317Z,1211.00
2023-05-17T07:41:15.362Z,1210.00
2023-05-17T07:42:15.384Z,1206.00
2023-05-17T07:43:15.369Z,1207.00
2023-05-17T07:44:16.099Z,1204.00
2023-05-17T07:45:15.457Z,1206.00
2023-05-17T07:46:15.434Z,1200.00
2023-05-17T07:47:15.501Z,800.00
2023-05-17T07:48:15.725Z,886.00
2023-05-17T07:49:15.720Z,893.00
2023-05-17T07:50:15.653Z,883.00
2023-05-17T07:51:15.633Z,836.00
2023-05-17T07:52:15.683Z,833.00
2023-05-17T07:53:15.755Z,822.00
2023-05-17T07:54:15.731Z,836.00
2023-05-17T07:55:17.036Z,621.00
2023-05-17T07:56:15.768Z,559.00
2023-05-17T07:57:15.776Z,527.00
2023-05-17T07:58:16.768Z,617.00
2023-05-17T07:59:15.770Z,626.00
2023-05-17T08:00:15.753Z,698.00
2023-05-17T08:01:15.756Z,699.00
2023-05-17T08:02:15.704Z,886.00
2023-05-17T08:03:17.184Z,895.00
2023-05-17T08:04:15.746Z,926.00
2023-05-17T08:05:15.714Z,1044.00
2023-05-17T08:06:15.827Z,1054.00
2023-05-17T08:07:15.678Z,1073.00
2023-05-17T08:08:15.685Z,1095.00
2023-05-17T08:09:15.657Z,1132.00
2023-05-17T08:10:15.660Z,1151.00
2023-05-17T08:11:15.882Z,1165.00
2023-05-17T08:12:15.632Z,1190.00
2023-05-17T08:13:15.660Z,1244.00
2023-05-17T08:14:15.760Z,1256.00
2023-05-17T08:15:15.756Z,1273.00
2023-05-17T08:16:15.737Z,1299.00
2023-05-17T08:17:15.794Z,1318.00
2023-05-17T08:18:15.911Z,1332.00
2023-05-17T08:19:16.087Z,1384.00
2023-05-17T08:20:15.955Z,1408.00
2023-05-17T08:21:16.016Z,1420.00
2023-05-17T08:22:15.993Z,1432.00
2023-05-17T08:23:16.099Z,1445.00
2023-05-17T08:24:16.092Z,1460.00
2023-05-17T08:25:16.066Z,1473.00
2023-05-17T08:26:16.134Z,1488.00
2023-05-17T08:27:16.168Z,1504.00
2023-05-17T08:28:16.575Z,1525.00
2023-05-17T08:29:16.210Z,1552.00
2023-05-17T08:30:25.336Z,1595.00
2023-05-17T08:31:17.258Z,1618.00
2023-05-17T08:32:16.184Z,1634.00
2023-05-17T08:33:16.250Z,1643.00
2023-05-17T08:34:16.232Z,1660.00
2023-05-17T08:35:16.166Z,1677.00
2023-05-17T08:36:16.146Z,1716.00
2023-05-17T08:37:16.189Z,1735.00
2023-05-17T08:38:17.025Z,1747.00
2023-05-17T08:39:16.159Z,1759.00
2023-05-17T08:40:16.194Z,1771.00
2023-05-17T08:41:16.194Z,1804.00
2023-05-17T08:42:16.204Z,1818.00
2023-05-17T08:43:16.577Z,1816.00
2023-05-17T08:44:16.317Z,1823.00
2023-05-17T08:45:16.231Z,1901.00
2023-05-17T08:46:16.271Z,1907.00
2023-05-17T08:47:16.306Z,1782.00
2023-05-17T08:48:16.358Z,1679.00
2023-05-17T08:49:16.380Z,1829.00
2023-05-17T08:50:16.346Z,1815.00
2023-05-17T08:51:16.364Z,1788.00
2023-05-17T08:52:16.404Z,1676.00
2023-05-17T08:53:16.647Z,1707.00
2023-05-17T08:54:16.477Z,1754.00
2023-05-17T08:55:16.659Z,1740.00
2023-05-17T08:56:16.496Z,1199.00
2023-05-17T08:57:16.499Z,1366.00
2023-05-17T08:58:16.541Z,1168.00
2023-05-17T08:59:16.573Z,1138.00
2023-05-17T09:00:16.578Z,1176.00
2023-05-17T09:01:16.644Z,1094.00
2023-05-17T09:02:16.736Z,1213.00
2023-05-17T09:03:16.794Z,1279.00
2023-05-17T09:04:16.761Z,1354.00
2023-05-17T09:05:16.890Z,1348.00
2023-05-17T09:06:16.868Z,1400.00
2023-05-17T09:07:17.423Z,1443.00
2023-05-17T09:08:16.965Z,1474.00
2023-05-17T09:09:16.984Z,1497.00
2023-05-17T09:10:17.038Z,1512.00
2023-05-17T09:11:17.044Z,1536.00
2023-05-17T09:12:18.032Z,1585.00
2023-05-17T09:13:17.049Z,1618.00
2023-05-17T09:14:17.036Z,1634.00
2023-05-17T09:15:17.046Z,1653.00
2023-05-17T09:16:16.981Z,1667.00
2023-05-17T09:17:16.969Z,1681.00
2023-05-17T09:18:19.416Z,1702.00
2023-05-17T09:19:17.354Z,1725.00
2023-05-17T09:20:17.305Z,1748.00
2023-05-17T09:21:17.232Z,1761.00
2023-05-17T09:22:17.256Z,1778.00
2023-05-17T09:23:17.613Z,1803.00
2023-05-17T09:24:17.372Z,1836.00
2023-05-17T09:25:17.447Z,1853.00
2023-05-17T09:26:17.490Z,1869.00
2023-05-17T09:27:17.580Z,1898.00
2023-05-17T09:28:17.638Z,1904.00
2023-05-17T09:29:17.634Z,1866.00
2023-05-17T09:30:17.697Z,1900.00
2023-05-17T09:31:17.764Z,1899.00
2023-05-17T09:32:17.757Z,1899.00
2023-05-17T09:33:18.986Z,1900.00
2023-05-17T09:34:17.878Z,1901.00
2023-05-17T09:35:17.885Z,1909.00
2023-05-17T09:36:17.933Z,1920.00
2023-05-17T09:37:17.998Z,1935.00
2023-05-17T09:38:18.012Z,1953.00
2023-05-17T09:39:18.073Z,1962.00
2023-05-17T09:40:18.101Z,1975.00
2023-05-17T09:41:18.147Z,1985.00
2023-05-17T09:42:18.284Z,1995.00
2023-05-17T09:43:18.257Z,2005.00
2023-05-17T09:44:18.228Z,2015.00
2023-05-17T09:45:18.258Z,2037.00
2023-05-17T09:46:18.307Z,2052.00
2023-05-17T09:47:18.394Z,2081.00
2023-05-17T09:48:18.513Z,2127.00
2023-05-17T09:49:18.473Z,1443.00
2023-05-17T09:50:18.512Z,1159.00
2023-05-17T09:51:18.508Z,1322.00
2023-05-17T09:52:18.517Z,1303.00
2023-05-17T09:53:18.604Z,1424.00
2023-05-17T09:54:18.571Z,1558.00
2023-05-17T09:55:18.558Z,1578.00
2023-05-17T09:56:18.584Z,1575.00
2023-05-17T09:57:18.583Z,1573.00
2023-05-17T09:58:18.667Z,1604.00
2023-05-17T09:59:18.639Z,1648.00
2023-05-17T10:00:18.685Z,1655.00
2023-05-17T10:01:18.657Z,1656.00
2023-05-17T10:02:18.687Z,1664.00
2023-05-17T10:03:18.812Z,1666.00
2023-05-17T10:04:18.740Z,1665.00
2023-05-17T10:05:18.776Z,1666.00
2023-05-17T10:06:28.143Z,1664.00
2023-05-17T10:07:19.783Z,1659.00
2023-05-17T10:08:18.780Z,1649.00
2023-05-17T10:09:18.781Z,1630.00
2023-05-17T10:10:18.746Z,1623.00
2023-05-17T10:11:18.723Z,1619.00
2023-05-17T10:12:18.736Z,1615.00
2023-05-17T10:13:18.773Z,1616.00
2023-05-17T10:14:18.750Z,1617.00
2023-05-17T10:15:18.731Z,1618.00
2023-05-17T10:16:18.742Z,1612.00
2023-05-17T10:17:18.702Z,1596.00
2023-05-17T10:18:18.788Z,1580.00
2023-05-17T10:19:18.774Z,1567.00
2023-05-17T10:20:18.863Z,1560.00
2023-05-17T10:21:18.693Z,1554.00
2023-05-17T10:22:23.097Z,1549.00
2023-05-17T10:23:19.692Z,1543.00
2023-05-17T10:24:18.677Z,1538.00
2023-05-17T10:25:18.656Z,1531.00
2023-05-17T10:26:18.651Z,1517.00
2023-05-17T10:27:18.675Z,1498.00
2023-05-17T10:28:18.653Z,1480.00
2023-05-17T10:29:18.606Z,1460.00
2023-05-17T10:30:18.702Z,1445.00
2023-05-17T10:31:18.618Z,1434.00
2023-05-17T10:32:18.638Z,1420.00
2023-05-17T10:33:18.712Z,1402.00
2023-05-17T10:34:18.801Z,1384.00
2023-05-17T10:35:18.620Z,1370.00
2023-05-17T10:36:18.609Z,1358.00
2023-05-17T10:37:18.667Z,1350.00
2023-05-17T10:38:20.444Z,1348.00
2023-05-17T10:39:18.697Z,1336.00
2023-05-17T10:40:18.708Z,1322.00
2023-05-17T10:41:18.705Z,1309.00
2023-05-17T10:42:18.658Z,1297.00
2023-05-17T10:43:19.137Z,1294.00
2023-05-17T10:44:18.658Z,1296.00
2023-05-17T10:45:18.648Z,1298.00
2023-05-17T10:46:18.760Z,1300.00
2023-05-17T10:47:18.652Z,1296.00
2023-05-17T10:48:18.698Z,1298.00
2023-05-17T10:49:22.131Z,1292.00
2023-05-17T10:50:19.645Z,1286.00
2023-05-17T10:51:18.625Z,1283.00
2023-05-17T10:52:18.598Z,1277.00
2023-05-17T10:53:18.593Z,1271.00
2023-05-17T10:54:18.685Z,1269.00
2023-05-17T10:55:18.573Z,1265.00
2023-05-17T10:56:18.583Z,1258.00
2023-05-17T10:57:18.551Z,1252.00
2023-05-17T10:58:18.572Z,1239.00
2023-05-17T10:59:18.596Z,1237.00
2023-05-17T11:00:18.534Z,1228.00
2023-05-17T11:01:18.583Z,1220.00
2023-05-17T11:02:18.645Z,1213.00
2023-05-17T11:03:18.703Z,1211.00
2023-05-17T11:04:18.737Z,1207.00
2023-05-17T11:05:18.870Z,1203.00
2023-05-17T11:06:25.363Z,1199.00
2023-05-17T11:07:19.825Z,1197.00
2023-05-17T11:08:18.840Z,1196.00
2023-05-17T11:09:18.860Z,1190.00
2023-05-17T11:10:18.823Z,1185.00
2023-05-17T11:11:18.801Z,1180.00
2023-05-17T11:12:18.816Z,1177.00
2023-05-17T11:13:18.802Z,1174.00
2023-05-17T11:14:18.775Z,1170.00
2023-05-17T11:15:18.780Z,1166.00
2023-05-17T11:16:18.782Z,1160.00
2023-05-17T11:17:18.856Z,1158.00
2023-05-17T11:18:30.519Z,1152.00
2023-05-17T11:19:19.918Z,1151.00
2023-05-17T11:20:18.994Z,1148.00
2023-05-17T11:21:18.846Z,1146.00
2023-05-17T11:22:18.868Z,1142.00
2023-05-17T11:23:18.889Z,1137.00
2023-05-17T11:24:20.888Z,1133.00
2023-05-17T11:25:18.854Z,1127.00
2023-05-17T11:26:18.850Z,1124.00
2023-05-17T11:27:18.793Z,1121.00
2023-05-17T11:28:18.793Z,1118.00
2023-05-17T11:29:18.845Z,1112.00
2023-05-17T11:30:18.801Z,1109.00
2023-05-17T11:31:18.803Z,1103.00
2023-05-17T11:32:18.797Z,1100.00
2023-05-17T11:33:32.438Z,1098.00
2023-05-17T11:34:19.887Z,1096.00
2023-05-17T11:35:18.761Z,1092.00
2023-05-17T11:36:18.778Z,1090.00
2023-05-17T11:37:18.739Z,1089.00
2023-05-17T11:38:18.756Z,1087.00
2023-05-17T11:39:18.754Z,1087.00
2023-05-17T11:40:18.759Z,1086.00
2023-05-17T11:42:18.716Z,1085.00
2023-05-17T11:43:18.717Z,1083.00
2023-05-17T11:44:18.684Z,1079.00
2023-05-17T11:45:18.692Z,1075.00
2023-05-17T11:46:18.693Z,1068.00
2023-05-17T11:47:18.673Z,1065.00
2023-05-17T11:48:18.797Z,1063.00
2023-05-17T11:49:34.331Z,1063.00
2023-05-17T11:50:19.648Z,1059.00
2023-05-17T11:51:18.617Z,1055.00
2023-05-17T11:52:18.631Z,1052.00
2023-05-17T11:53:18.645Z,1047.00
2023-05-17T11:54:18.616Z,1044.00
2023-05-17T11:55:18.624Z,1043.00
2023-05-17T11:56:20.620Z,1041.00
2023-05-17T11:57:18.617Z,1040.00
2023-05-17T11:58:18.622Z,1038.00
2023-05-17T11:59:18.581Z,1036.00
2023-05-17T12:00:18.576Z,1034.00
2023-05-17T12:01:18.624Z,1031.00
2023-05-17T12:02:18.541Z,1028.00
2023-05-17T12:03:18.573Z,1024.00
2023-05-17T12:04:18.582Z,1018.00
2023-05-17T12:05:18.563Z,1015.00
2023-05-17T12:06:18.739Z,1007.00
2023-05-17T12:07:18.533Z,1003.00
2023-05-17T12:08:18.557Z,1002.00
2023-05-17T12:09:18.559Z,1001.00
2023-05-17T12:10:18.580Z,996.00
2023-05-17T12:11:18.505Z,992.00
2023-05-17T12:12:18.532Z,989.00
2023-05-17T12:13:18.496Z,987.00
2023-05-17T12:14:18.505Z,981.00
2023-05-17T12:15:18.483Z,980.00
2023-05-17T12:16:18.524Z,979.00
2023-05-17T12:17:18.461Z,976.00
2023-05-17T12:18:18.537Z,977.00
2023-05-17T12:19:18.536Z,975.00
2023-05-17T12:20:18.543Z,972.00
2023-05-17T12:21:18.425Z,970.00